sensor_id;sensor_type;location;lat;lon;timestamp;P1;durP1;ratioP1;P2;durP2;ratioP2
10381;SDS011;11635;53.636;10.120;2022-12-01T00:02:16;69.50;;;43.72;;
10381;SDS011;11635;53.636;10.120;2022-12-01T00:04:43;72.53;;;44.30;;
10381;SDS011;11635;53.636;10.120;2022-12-01T00:07:09;71.80;;;42.97;;
10381;SDS011;11635;53.636;10.120;2022-12-01T00:09:35;75.78;;;45.22;;
10381;SDS011;11635;53.636;10.120;2022-12-01T00:12:20;68.47;;;42.00;;
10381;SDS011;11635;53.636;10.120;2022-12-01T00:14:47;65.18;;;42.97;;
10381;SDS011;11635;53.636;10.120;2022-12-01T00:17:18;70.28;;;43.35;;
10381;SDS011;11635;53.636;10.120;2022-12-01T00:19:45;72.32;;;45.03;;
10381;SDS011;11635;53.636;10.120;2022-12-01T00:22:11;72.10;;;45.83;;
10381;SDS011;11635;53.636;10.120;2022-12-01T00:24:37;74.68;;;45.35;;
10381;SDS011;11635;53.636;10.120;2022-12-01T00:27:04;76.93;;;45.00;;
10381;SDS011;11635;53.636;10.120;2022-12-01T00:29:31;67.65;;;42.83;;
10381;SDS011;11635;53.636;10.120;2022-12-01T00:31:58;76.53;;;43.95;;
10381;SDS011;11635;53.636;10.120;2022-12-01T00:34:24;76.18;;;44.80;;
10381;SDS011;11635;53.636;10.120;2022-12-01T00:36:52;73.97;;;43.92;;
10381;SDS011;11635;53.636;10.120;2022-12-01T00:39:18;73.57;;;44.83;;
10381;SDS011;11635;53.636;10.120;2022-12-01T00:41:45;76.85;;;44.08;;
10381;SDS011;11635;53.636;10.120;2022-12-01T00:44:11;72.60;;;43.58;;
10381;SDS011;11635;53.636;10.120;2022-12-01T00:46:39;75.78;;;43.92;;
10381;SDS011;11635;53.636;10.120;2022-12-01T00:49:05;71.35;;;45.47;;
10381;SDS011;11635;53.636;10.120;2022-12-01T00:51:32;72.00;;;42.83;;
10381;SDS011;11635;53.636;10.120;2022-12-01T00:53:58;72.13;;;45.10;;
10381;SDS011;11635;53.636;10.120;2022-12-01T00:56:24;71.35;;;43.50;;
10381;SDS011;11635;53.636;10.120;2022-12-01T00:58:51;77.97;;;45.63;;
10381;SDS011;11635;53.636;10.120;2022-12-01T01:01:17;74.00;;;45.42;;
10381;SDS011;11635;53.636;10.120;2022-12-01T01:03:45;72.90;;;45.20;;
10381;SDS011;11635;53.636;10.120;2022-12-01T01:06:12;71.05;;;43.67;;
10381;SDS011;11635;53.636;10.120;2022-12-01T01:08:38;76.47;;;44.47;;
10381;SDS011;11635;53.636;10.120;2022-12-01T01:11:05;70.78;;;45.13;;
10381;SDS011;11635;53.636;10.120;2022-12-01T01:13:32;74.93;;;44.47;;
10381;SDS011;11635;53.636;10.120;2022-12-01T01:16:00;78.10;;;45.57;;
10381;SDS011;11635;53.636;10.120;2022-12-01T01:18:26;79.30;;;46.78;;
10381;SDS011;11635;53.636;10.120;2022-12-01T01:20:55;71.00;;;43.27;;
10381;SDS011;11635;53.636;10.120;2022-12-01T01:23:21;69.70;;;43.28;;
10381;SDS011;11635;53.636;10.120;2022-12-01T01:25:48;73.72;;;44.97;;
10381;SDS011;11635;53.636;10.120;2022-12-01T01:28:14;75.00;;;46.03;;
10381;SDS011;11635;53.636;10.120;2022-12-01T01:30:40;77.68;;;46.20;;
10381;SDS011;11635;53.636;10.120;2022-12-01T01:33:07;75.03;;;44.97;;
10381;SDS011;11635;53.636;10.120;2022-12-01T01:35:34;73.20;;;44.97;;
10381;SDS011;11635;53.636;10.120;2022-12-01T01:38:02;77.63;;;46.40;;
10381;SDS011;11635;53.636;10.120;2022-12-01T01:40:28;78.55;;;45.72;;
10381;SDS011;11635;53.636;10.120;2022-12-01T01:42:54;80.47;;;46.80;;
10381;SDS011;11635;53.636;10.120;2022-12-01T01:45:21;81.73;;;44.33;;
10381;SDS011;11635;53.636;10.120;2022-12-01T01:47:48;78.40;;;46.75;;
10381;SDS011;11635;53.636;10.120;2022-12-01T01:50:15;80.37;;;47.00;;
10381;SDS011;11635;53.636;10.120;2022-12-01T01:52:44;72.38;;;44.28;;
10381;SDS011;11635;53.636;10.120;2022-12-01T01:55:12;78.05;;;47.40;;
10381;SDS011;11635;53.636;10.120;2022-12-01T01:57:39;79.03;;;47.30;;
10381;SDS011;11635;53.636;10.120;2022-12-01T02:00:06;80.70;;;46.80;;
10381;SDS011;11635;53.636;10.120;2022-12-01T02:02:34;83.53;;;47.30;;
10381;SDS011;11635;53.636;10.120;2022-12-01T02:05:05;76.40;;;47.85;;
10381;SDS011;11635;53.636;10.120;2022-12-01T02:07:35;80.20;;;46.77;;
10381;SDS011;11635;53.636;10.120;2022-12-01T02:10:02;81.28;;;47.50;;
10381;SDS011;11635;53.636;10.120;2022-12-01T02:12:43;75.87;;;47.10;;
10381;SDS011;11635;53.636;10.120;2022-12-01T02:15:17;82.43;;;46.67;;
10381;SDS011;11635;53.636;10.120;2022-12-01T02:17:49;80.65;;;47.05;;
10381;SDS011;11635;53.636;10.120;2022-12-01T02:20:25;85.60;;;47.85;;
10381;SDS011;11635;53.636;10.120;2022-12-01T02:23:01;83.78;;;47.60;;
10381;SDS011;11635;53.636;10.120;2022-12-01T02:25:33;88.07;;;48.35;;
10381;SDS011;11635;53.636;10.120;2022-12-01T02:28:28;82.85;;;47.97;;
10381;SDS011;11635;53.636;10.120;2022-12-01T02:31:01;76.38;;;47.20;;
10381;SDS011;11635;53.636;10.120;2022-12-01T02:33:31;77.68;;;46.83;;
10381;SDS011;11635;53.636;10.120;2022-12-01T02:36:00;82.67;;;48.37;;
10381;SDS011;11635;53.636;10.120;2022-12-01T02:38:29;87.35;;;50.15;;
10381;SDS011;11635;53.636;10.120;2022-12-01T02:40:57;83.63;;;50.73;;
10381;SDS011;11635;53.636;10.120;2022-12-01T02:43:26;84.63;;;50.63;;
10381;SDS011;11635;53.636;10.120;2022-12-01T02:45:55;89.07;;;50.93;;
10381;SDS011;11635;53.636;10.120;2022-12-01T02:48:26;90.20;;;50.58;;
10381;SDS011;11635;53.636;10.120;2022-12-01T02:50:53;82.90;;;49.55;;
10381;SDS011;11635;53.636;10.120;2022-12-01T02:53:20;88.27;;;51.13;;
10381;SDS011;11635;53.636;10.120;2022-12-01T02:55:50;91.33;;;54.50;;
10381;SDS011;11635;53.636;10.120;2022-12-01T02:58:17;85.28;;;49.08;;
10381;SDS011;11635;53.636;10.120;2022-12-01T03:00:48;87.70;;;50.83;;
10381;SDS011;11635;53.636;10.120;2022-12-01T03:03:22;92.80;;;52.03;;
10381;SDS011;11635;53.636;10.120;2022-12-01T03:05:53;84.72;;;50.15;;
10381;SDS011;11635;53.636;10.120;2022-12-01T03:08:24;81.72;;;49.92;;
10381;SDS011;11635;53.636;10.120;2022-12-01T03:10:52;88.07;;;52.27;;
10381;SDS011;11635;53.636;10.120;2022-12-01T03:13:20;85.63;;;52.78;;
10381;SDS011;11635;53.636;10.120;2022-12-01T03:15:52;90.87;;;51.90;;
10381;SDS011;11635;53.636;10.120;2022-12-01T03:18:24;87.47;;;50.53;;
10381;SDS011;11635;53.636;10.120;2022-12-01T03:20:54;84.15;;;51.88;;
10381;SDS011;11635;53.636;10.120;2022-12-01T03:23:22;84.75;;;49.88;;
10381;SDS011;11635;53.636;10.120;2022-12-01T03:25:50;82.57;;;50.15;;
10381;SDS011;11635;53.636;10.120;2022-12-01T03:28:18;88.13;;;51.60;;
10381;SDS011;11635;53.636;10.120;2022-12-01T03:30:45;87.03;;;50.77;;
10381;SDS011;11635;53.636;10.120;2022-12-01T03:33:15;96.43;;;54.37;;
10381;SDS011;11635;53.636;10.120;2022-12-01T03:35:44;88.50;;;50.40;;
10381;SDS011;11635;53.636;10.120;2022-12-01T03:38:15;94.97;;;54.30;;
10381;SDS011;11635;53.636;10.120;2022-12-01T03:40:42;92.50;;;50.87;;
10381;SDS011;11635;53.636;10.120;2022-12-01T03:43:10;88.18;;;49.50;;
10381;SDS011;11635;53.636;10.120;2022-12-01T03:45:39;92.03;;;52.05;;
10381;SDS011;11635;53.636;10.120;2022-12-01T03:48:06;92.00;;;51.97;;
10381;SDS011;11635;53.636;10.120;2022-12-01T03:50:34;97.47;;;53.55;;
10381;SDS011;11635;53.636;10.120;2022-12-01T03:53:05;87.57;;;49.65;;
10381;SDS011;11635;53.636;10.120;2022-12-01T03:55:35;84.50;;;50.53;;
10381;SDS011;11635;53.636;10.120;2022-12-01T03:58:03;91.65;;;51.15;;
10381;SDS011;11635;53.636;10.120;2022-12-01T04:00:31;83.88;;;49.08;;
10381;SDS011;11635;53.636;10.120;2022-12-01T04:02:59;90.83;;;54.03;;
10381;SDS011;11635;53.636;10.120;2022-12-01T04:05:27;86.60;;;50.77;;
10381;SDS011;11635;53.636;10.120;2022-12-01T04:07:53;91.75;;;51.40;;
10381;SDS011;11635;53.636;10.120;2022-12-01T04:10:20;90.78;;;51.15;;
10381;SDS011;11635;53.636;10.120;2022-12-01T04:12:48;90.25;;;51.47;;
10381;SDS011;11635;53.636;10.120;2022-12-01T04:15:13;88.80;;;52.58;;
10381;SDS011;11635;53.636;10.120;2022-12-01T04:17:40;85.15;;;50.17;;
10381;SDS011;11635;53.636;10.120;2022-12-01T04:20:07;88.67;;;50.97;;
10381;SDS011;11635;53.636;10.120;2022-12-01T04:22:34;83.15;;;48.47;;
10381;SDS011;11635;53.636;10.120;2022-12-01T04:25:01;95.18;;;50.28;;
10381;SDS011;11635;53.636;10.120;2022-12-01T04:27:27;83.95;;;47.95;;
10381;SDS011;11635;53.636;10.120;2022-12-01T04:29:55;82.53;;;48.50;;
10381;SDS011;11635;53.636;10.120;2022-12-01T04:32:21;86.63;;;49.67;;
10381;SDS011;11635;53.636;10.120;2022-12-01T04:34:47;86.60;;;49.90;;
10381;SDS011;11635;53.636;10.120;2022-12-01T04:37:13;88.60;;;51.17;;
10381;SDS011;11635;53.636;10.120;2022-12-01T04:39:40;86.90;;;49.73;;
10381;SDS011;11635;53.636;10.120;2022-12-01T04:42:07;87.85;;;50.00;;
10381;SDS011;11635;53.636;10.120;2022-12-01T04:44:33;89.28;;;50.50;;
10381;SDS011;11635;53.636;10.120;2022-12-01T04:47:01;89.35;;;51.80;;
10381;SDS011;11635;53.636;10.120;2022-12-01T04:49:27;86.73;;;49.47;;
10381;SDS011;11635;53.636;10.120;2022-12-01T04:51:54;86.70;;;50.17;;
10381;SDS011;11635;53.636;10.120;2022-12-01T04:54:20;84.22;;;50.80;;
10381;SDS011;11635;53.636;10.120;2022-12-01T04:56:47;87.22;;;47.75;;
10381;SDS011;11635;53.636;10.120;2022-12-01T04:59:13;92.72;;;50.00;;
10381;SDS011;11635;53.636;10.120;2022-12-01T05:01:40;87.88;;;50.40;;
10381;SDS011;11635;53.636;10.120;2022-12-01T05:04:09;91.38;;;50.28;;
10381;SDS011;11635;53.636;10.120;2022-12-01T05:06:35;85.15;;;49.15;;
10381;SDS011;11635;53.636;10.120;2022-12-01T05:09:02;86.85;;;49.00;;
10381;SDS011;11635;53.636;10.120;2022-12-01T05:11:29;84.85;;;48.53;;
10381;SDS011;11635;53.636;10.120;2022-12-01T05:13:55;90.17;;;48.90;;
10381;SDS011;11635;53.636;10.120;2022-12-01T05:16:22;83.38;;;48.42;;
10381;SDS011;11635;53.636;10.120;2022-12-01T05:18:50;86.93;;;49.30;;
10381;SDS011;11635;53.636;10.120;2022-12-01T05:21:38;86.65;;;49.05;;
10381;SDS011;11635;53.636;10.120;2022-12-01T05:24:04;84.45;;;49.25;;
10381;SDS011;11635;53.636;10.120;2022-12-01T05:26:30;87.30;;;46.78;;
10381;SDS011;11635;53.636;10.120;2022-12-01T05:28:57;86.32;;;46.08;;
10381;SDS011;11635;53.636;10.120;2022-12-01T05:31:23;85.75;;;49.65;;
10381;SDS011;11635;53.636;10.120;2022-12-01T05:33:49;85.40;;;50.88;;
10381;SDS011;11635;53.636;10.120;2022-12-01T05:36:15;85.78;;;49.95;;
10381;SDS011;11635;53.636;10.120;2022-12-01T05:38:43;90.47;;;50.15;;
10381;SDS011;11635;53.636;10.120;2022-12-01T05:41:09;90.50;;;48.70;;
10381;SDS011;11635;53.636;10.120;2022-12-01T05:43:36;84.47;;;47.40;;
10381;SDS011;11635;53.636;10.120;2022-12-01T05:46:02;91.57;;;49.65;;
10381;SDS011;11635;53.636;10.120;2022-12-01T05:48:29;86.75;;;46.90;;
10381;SDS011;11635;53.636;10.120;2022-12-01T05:50:55;84.97;;;47.83;;
10381;SDS011;11635;53.636;10.120;2022-12-01T05:53:21;89.38;;;49.95;;
10381;SDS011;11635;53.636;10.120;2022-12-01T05:55:51;92.73;;;50.03;;
10381;SDS011;11635;53.636;10.120;2022-12-01T05:58:18;93.70;;;51.35;;
10381;SDS011;11635;53.636;10.120;2022-12-01T06:00:44;92.55;;;49.30;;
10381;SDS011;11635;53.636;10.120;2022-12-01T06:03:11;96.43;;;50.80;;
10381;SDS011;11635;53.636;10.120;2022-12-01T06:05:38;95.90;;;52.10;;
10381;SDS011;11635;53.636;10.120;2022-12-01T06:08:04;94.70;;;50.13;;
10381;SDS011;11635;53.636;10.120;2022-12-01T06:10:31;92.18;;;50.70;;
10381;SDS011;11635;53.636;10.120;2022-12-01T06:12:58;88.63;;;48.33;;
10381;SDS011;11635;53.636;10.120;2022-12-01T06:15:25;86.30;;;46.72;;
10381;SDS011;11635;53.636;10.120;2022-12-01T06:17:51;93.68;;;51.55;;
10381;SDS011;11635;53.636;10.120;2022-12-01T06:20:18;84.28;;;48.90;;
10381;SDS011;11635;53.636;10.120;2022-12-01T06:22:44;91.85;;;50.53;;
10381;SDS011;11635;53.636;10.120;2022-12-01T06:25:10;97.83;;;50.90;;
10381;SDS011;11635;53.636;10.120;2022-12-01T06:27:37;90.45;;;49.55;;
10381;SDS011;11635;53.636;10.120;2022-12-01T06:30:05;93.43;;;50.85;;
10381;SDS011;11635;53.636;10.120;2022-12-01T06:32:32;90.13;;;50.28;;
10381;SDS011;11635;53.636;10.120;2022-12-01T06:34:58;94.90;;;50.08;;
10381;SDS011;11635;53.636;10.120;2022-12-01T06:37:25;91.97;;;49.72;;
10381;SDS011;11635;53.636;10.120;2022-12-01T06:39:51;89.57;;;51.63;;
10381;SDS011;11635;53.636;10.120;2022-12-01T06:42:18;98.53;;;53.27;;
10381;SDS011;11635;53.636;10.120;2022-12-01T06:44:44;92.17;;;50.30;;
10381;SDS011;11635;53.636;10.120;2022-12-01T06:47:12;100.55;;;52.35;;
10381;SDS011;11635;53.636;10.120;2022-12-01T06:49:39;95.78;;;49.67;;
10381;SDS011;11635;53.636;10.120;2022-12-01T06:52:06;91.23;;;50.17;;
10381;SDS011;11635;53.636;10.120;2022-12-01T06:54:32;86.80;;;47.85;;
10381;SDS011;11635;53.636;10.120;2022-12-01T06:57:01;94.78;;;48.58;;
10381;SDS011;11635;53.636;10.120;2022-12-01T06:59:27;89.85;;;48.70;;
10381;SDS011;11635;53.636;10.120;2022-12-01T07:01:53;94.05;;;48.88;;
10381;SDS011;11635;53.636;10.120;2022-12-01T07:04:23;89.87;;;49.07;;
10381;SDS011;11635;53.636;10.120;2022-12-01T07:06:49;88.03;;;46.38;;
10381;SDS011;11635;53.636;10.120;2022-12-01T07:09:15;88.15;;;48.00;;
10381;SDS011;11635;53.636;10.120;2022-12-01T07:11:41;88.33;;;48.47;;
10381;SDS011;11635;53.636;10.120;2022-12-01T07:14:10;88.63;;;48.83;;
10381;SDS011;11635;53.636;10.120;2022-12-01T07:16:41;86.85;;;47.25;;
10381;SDS011;11635;53.636;10.120;2022-12-01T07:19:07;89.88;;;47.65;;
10381;SDS011;11635;53.636;10.120;2022-12-01T07:21:35;85.20;;;47.15;;
10381;SDS011;11635;53.636;10.120;2022-12-01T07:24:01;90.30;;;49.17;;
10381;SDS011;11635;53.636;10.120;2022-12-01T07:26:27;81.83;;;47.70;;
10381;SDS011;11635;53.636;10.120;2022-12-01T07:28:54;87.07;;;47.63;;
10381;SDS011;11635;53.636;10.120;2022-12-01T07:31:20;85.43;;;48.25;;
10381;SDS011;11635;53.636;10.120;2022-12-01T07:33:46;80.57;;;45.53;;
10381;SDS011;11635;53.636;10.120;2022-12-01T07:36:13;85.40;;;46.30;;
10381;SDS011;11635;53.636;10.120;2022-12-01T07:38:41;83.50;;;48.67;;
10381;SDS011;11635;53.636;10.120;2022-12-01T07:41:07;84.07;;;48.78;;
10381;SDS011;11635;53.636;10.120;2022-12-01T07:43:34;89.35;;;47.40;;
10381;SDS011;11635;53.636;10.120;2022-12-01T07:46:04;88.25;;;49.03;;
10381;SDS011;11635;53.636;10.120;2022-12-01T07:48:31;81.53;;;44.78;;
10381;SDS011;11635;53.636;10.120;2022-12-01T07:50:57;79.03;;;45.28;;
10381;SDS011;11635;53.636;10.120;2022-12-01T07:53:24;81.65;;;46.75;;
10381;SDS011;11635;53.636;10.120;2022-12-01T07:55:51;85.30;;;46.63;;
10381;SDS011;11635;53.636;10.120;2022-12-01T07:58:18;83.68;;;46.75;;
10381;SDS011;11635;53.636;10.120;2022-12-01T08:00:44;77.10;;;46.22;;
10381;SDS011;11635;53.636;10.120;2022-12-01T08:03:11;79.93;;;45.13;;
10381;SDS011;11635;53.636;10.120;2022-12-01T08:05:37;82.10;;;46.80;;
10381;SDS011;11635;53.636;10.120;2022-12-01T08:08:04;75.10;;;44.25;;
10381;SDS011;11635;53.636;10.120;2022-12-01T08:10:30;80.30;;;44.22;;
10381;SDS011;11635;53.636;10.120;2022-12-01T08:12:58;80.13;;;44.00;;
10381;SDS011;11635;53.636;10.120;2022-12-01T08:15:24;77.50;;;44.83;;
10381;SDS011;11635;53.636;10.120;2022-12-01T08:17:50;81.72;;;47.65;;
10381;SDS011;11635;53.636;10.120;2022-12-01T08:20:17;83.82;;;46.00;;
10381;SDS011;11635;53.636;10.120;2022-12-01T08:22:45;77.60;;;45.53;;
10381;SDS011;11635;53.636;10.120;2022-12-01T08:25:11;83.15;;;46.95;;
10381;SDS011;11635;53.636;10.120;2022-12-01T08:27:38;75.00;;;42.37;;
10381;SDS011;11635;53.636;10.120;2022-12-01T08:30:07;76.05;;;42.75;;
10381;SDS011;11635;53.636;10.120;2022-12-01T08:32:33;73.53;;;42.20;;
10381;SDS011;11635;53.636;10.120;2022-12-01T08:34:59;78.18;;;43.05;;
10381;SDS011;11635;53.636;10.120;2022-12-01T08:37:26;72.95;;;41.58;;
10381;SDS011;11635;53.636;10.120;2022-12-01T08:39:52;78.20;;;41.90;;
10381;SDS011;11635;53.636;10.120;2022-12-01T08:42:18;76.45;;;42.15;;
10381;SDS011;11635;53.636;10.120;2022-12-01T08:44:45;75.30;;;42.72;;
10381;SDS011;11635;53.636;10.120;2022-12-01T08:47:12;80.53;;;42.03;;
10381;SDS011;11635;53.636;10.120;2022-12-01T08:49:39;80.10;;;43.63;;
10381;SDS011;11635;53.636;10.120;2022-12-01T08:52:05;83.20;;;43.63;;
10381;SDS011;11635;53.636;10.120;2022-12-01T08:54:31;80.50;;;44.83;;
10381;SDS011;11635;53.636;10.120;2022-12-01T08:56:58;81.47;;;43.17;;
10381;SDS011;11635;53.636;10.120;2022-12-01T08:59:24;77.63;;;41.30;;
10381;SDS011;11635;53.636;10.120;2022-12-01T09:01:50;71.70;;;39.10;;
10381;SDS011;11635;53.636;10.120;2022-12-01T09:04:23;74.85;;;39.65;;
10381;SDS011;11635;53.636;10.120;2022-12-01T09:06:50;68.28;;;38.25;;
10381;SDS011;11635;53.636;10.120;2022-12-01T09:09:18;74.63;;;42.63;;
10381;SDS011;11635;53.636;10.120;2022-12-01T09:11:44;70.38;;;39.35;;
10381;SDS011;11635;53.636;10.120;2022-12-01T09:14:11;80.07;;;41.88;;
10381;SDS011;11635;53.636;10.120;2022-12-01T09:16:37;77.05;;;42.63;;
10381;SDS011;11635;53.636;10.120;2022-12-01T09:19:03;77.53;;;42.25;;
10381;SDS011;11635;53.636;10.120;2022-12-01T09:21:31;72.85;;;39.05;;
10381;SDS011;11635;53.636;10.120;2022-12-01T09:23:58;76.60;;;39.77;;
10381;SDS011;11635;53.636;10.120;2022-12-01T09:26:25;74.32;;;39.47;;
10381;SDS011;11635;53.636;10.120;2022-12-01T09:28:55;69.25;;;38.63;;
10381;SDS011;11635;53.636;10.120;2022-12-01T09:31:22;78.20;;;39.15;;
10381;SDS011;11635;53.636;10.120;2022-12-01T09:33:52;77.70;;;40.35;;
10381;SDS011;11635;53.636;10.120;2022-12-01T09:36:19;70.07;;;38.08;;
10381;SDS011;11635;53.636;10.120;2022-12-01T09:38:47;75.72;;;40.45;;
10381;SDS011;11635;53.636;10.120;2022-12-01T09:41:14;70.45;;;36.95;;
10381;SDS011;11635;53.636;10.120;2022-12-01T09:43:42;77.93;;;38.05;;
10381;SDS011;11635;53.636;10.120;2022-12-01T09:46:10;71.97;;;38.20;;
10381;SDS011;11635;53.636;10.120;2022-12-01T09:48:39;75.75;;;39.92;;
10381;SDS011;11635;53.636;10.120;2022-12-01T09:51:08;73.90;;;39.00;;
10381;SDS011;11635;53.636;10.120;2022-12-01T09:53:34;72.63;;;39.10;;
10381;SDS011;11635;53.636;10.120;2022-12-01T09:56:02;74.60;;;39.17;;
10381;SDS011;11635;53.636;10.120;2022-12-01T09:58:29;68.80;;;36.20;;
10381;SDS011;11635;53.636;10.120;2022-12-01T10:00:55;76.40;;;40.47;;
10381;SDS011;11635;53.636;10.120;2022-12-01T10:03:25;74.70;;;39.78;;
10381;SDS011;11635;53.636;10.120;2022-12-01T10:05:54;70.75;;;37.25;;
10381;SDS011;11635;53.636;10.120;2022-12-01T10:08:22;68.05;;;36.47;;
10381;SDS011;11635;53.636;10.120;2022-12-01T10:10:50;55.92;;;30.88;;
10381;SDS011;11635;53.636;10.120;2022-12-01T10:13:20;60.30;;;30.77;;
10381;SDS011;11635;53.636;10.120;2022-12-01T10:15:48;55.67;;;29.50;;
10381;SDS011;11635;53.636;10.120;2022-12-01T10:18:19;44.77;;;27.50;;
10381;SDS011;11635;53.636;10.120;2022-12-01T10:20:47;51.15;;;26.83;;
10381;SDS011;11635;53.636;10.120;2022-12-01T10:23:19;53.45;;;28.35;;
10381;SDS011;11635;53.636;10.120;2022-12-01T10:25:50;46.45;;;26.73;;
10381;SDS011;11635;53.636;10.120;2022-12-01T10:28:29;48.63;;;28.33;;
10381;SDS011;11635;53.636;10.120;2022-12-01T10:31:01;44.67;;;27.53;;
10381;SDS011;11635;53.636;10.120;2022-12-01T10:33:31;48.33;;;27.02;;
10381;SDS011;11635;53.636;10.120;2022-12-01T10:35:58;46.17;;;27.23;;
10381;SDS011;11635;53.636;10.120;2022-12-01T10:38:25;46.35;;;27.08;;
10381;SDS011;11635;53.636;10.120;2022-12-01T10:40:52;48.97;;;29.63;;
10381;SDS011;11635;53.636;10.120;2022-12-01T10:43:19;53.37;;;29.70;;
10381;SDS011;11635;53.636;10.120;2022-12-01T10:45:50;52.33;;;29.83;;
10381;SDS011;11635;53.636;10.120;2022-12-01T10:48:17;52.88;;;29.75;;
10381;SDS011;11635;53.636;10.120;2022-12-01T10:50:44;55.92;;;30.92;;
10381;SDS011;11635;53.636;10.120;2022-12-01T10:53:24;53.57;;;30.77;;
10381;SDS011;11635;53.636;10.120;2022-12-01T10:55:55;57.65;;;31.70;;
10381;SDS011;11635;53.636;10.120;2022-12-01T10:58:23;52.78;;;30.67;;
10381;SDS011;11635;53.636;10.120;2022-12-01T11:00:55;55.90;;;30.13;;
10381;SDS011;11635;53.636;10.120;2022-12-01T11:03:22;56.00;;;31.30;;
10381;SDS011;11635;53.636;10.120;2022-12-01T11:05:50;57.08;;;32.33;;
10381;SDS011;11635;53.636;10.120;2022-12-01T11:08:21;62.80;;;33.45;;
10381;SDS011;11635;53.636;10.120;2022-12-01T11:10:48;66.60;;;33.97;;
10381;SDS011;11635;53.636;10.120;2022-12-01T11:13:16;61.78;;;32.88;;
10381;SDS011;11635;53.636;10.120;2022-12-01T11:15:48;61.95;;;32.05;;
10381;SDS011;11635;53.636;10.120;2022-12-01T11:18:20;64.22;;;32.42;;
10381;SDS011;11635;53.636;10.120;2022-12-01T11:20:47;60.33;;;33.40;;
10381;SDS011;11635;53.636;10.120;2022-12-01T11:23:28;62.13;;;32.65;;
10381;SDS011;11635;53.636;10.120;2022-12-01T11:25:56;56.85;;;31.88;;
10381;SDS011;11635;53.636;10.120;2022-12-01T11:28:23;67.13;;;31.70;;
10381;SDS011;11635;53.636;10.120;2022-12-01T11:30:53;58.28;;;30.10;;
10381;SDS011;11635;53.636;10.120;2022-12-01T11:33:21;55.50;;;31.88;;
10381;SDS011;11635;53.636;10.120;2022-12-01T11:35:48;53.70;;;27.03;;
10381;SDS011;11635;53.636;10.120;2022-12-01T11:38:18;51.40;;;27.77;;
10381;SDS011;11635;53.636;10.120;2022-12-01T11:40:47;51.88;;;27.70;;
10381;SDS011;11635;53.636;10.120;2022-12-01T11:43:18;49.67;;;26.43;;
10381;SDS011;11635;53.636;10.120;2022-12-01T11:45:46;51.73;;;26.97;;
10381;SDS011;11635;53.636;10.120;2022-12-01T11:48:17;64.83;;;31.60;;
10381;SDS011;11635;53.636;10.120;2022-12-01T11:51:00;63.97;;;31.30;;
10381;SDS011;11635;53.636;10.120;2022-12-01T11:53:27;57.80;;;29.57;;
10381;SDS011;11635;53.636;10.120;2022-12-01T11:56:04;53.55;;;27.40;;
10381;SDS011;11635;53.636;10.120;2022-12-01T11:58:38;60.00;;;31.00;;
10381;SDS011;11635;53.636;10.120;2022-12-01T12:01:05;62.58;;;31.17;;
10381;SDS011;11635;53.636;10.120;2022-12-01T12:03:37;63.73;;;31.00;;
10381;SDS011;11635;53.636;10.120;2022-12-01T12:06:09;64.07;;;31.63;;
10381;SDS011;11635;53.636;10.120;2022-12-01T12:08:43;58.60;;;30.07;;
10381;SDS011;11635;53.636;10.120;2022-12-01T12:11:13;58.57;;;30.27;;
10381;SDS011;11635;53.636;10.120;2022-12-01T12:13:57;57.20;;;29.48;;
10381;SDS011;11635;53.636;10.120;2022-12-01T12:16:28;62.72;;;29.92;;
10381;SDS011;11635;53.636;10.120;2022-12-01T12:19:04;60.03;;;31.13;;
10381;SDS011;11635;53.636;10.120;2022-12-01T12:21:40;61.87;;;30.37;;
10381;SDS011;11635;53.636;10.120;2022-12-01T12:24:15;59.87;;;31.17;;
10381;SDS011;11635;53.636;10.120;2022-12-01T12:26:42;60.97;;;29.65;;
10381;SDS011;11635;53.636;10.120;2022-12-01T12:29:21;62.13;;;29.30;;
10381;SDS011;11635;53.636;10.120;2022-12-01T12:31:54;63.50;;;29.17;;
10381;SDS011;11635;53.636;10.120;2022-12-01T12:34:28;56.93;;;27.67;;
10381;SDS011;11635;53.636;10.120;2022-12-01T12:37:03;58.10;;;27.73;;
10381;SDS011;11635;53.636;10.120;2022-12-01T12:39:42;61.93;;;29.87;;
10381;SDS011;11635;53.636;10.120;2022-12-01T12:42:15;58.00;;;27.17;;
10381;SDS011;11635;53.636;10.120;2022-12-01T12:44:46;51.60;;;25.27;;
10381;SDS011;11635;53.636;10.120;2022-12-01T12:47:18;47.77;;;25.13;;
10381;SDS011;11635;53.636;10.120;2022-12-01T12:49:49;55.15;;;25.38;;
10381;SDS011;11635;53.636;10.120;2022-12-01T12:52:18;55.53;;;25.33;;
10381;SDS011;11635;53.636;10.120;2022-12-01T12:54:50;55.25;;;25.58;;
10381;SDS011;11635;53.636;10.120;2022-12-01T12:57:19;48.17;;;23.80;;
10381;SDS011;11635;53.636;10.120;2022-12-01T12:59:48;47.33;;;24.37;;
10381;SDS011;11635;53.636;10.120;2022-12-01T13:02:17;54.30;;;25.83;;
10381;SDS011;11635;53.636;10.120;2022-12-01T13:04:47;50.90;;;24.63;;
10381;SDS011;11635;53.636;10.120;2022-12-01T13:07:23;46.70;;;24.37;;
10381;SDS011;11635;53.636;10.120;2022-12-01T13:09:51;47.45;;;24.80;;
10381;SDS011;11635;53.636;10.120;2022-12-01T13:12:22;45.40;;;24.07;;
10381;SDS011;11635;53.636;10.120;2022-12-01T13:14:51;53.23;;;25.13;;
10381;SDS011;11635;53.636;10.120;2022-12-01T13:17:20;50.93;;;24.90;;
10381;SDS011;11635;53.636;10.120;2022-12-01T13:19:49;55.50;;;25.57;;
10381;SDS011;11635;53.636;10.120;2022-12-01T13:22:16;54.20;;;24.17;;
10381;SDS011;11635;53.636;10.120;2022-12-01T13:24:45;56.50;;;25.73;;
10381;SDS011;11635;53.636;10.120;2022-12-01T13:27:13;53.17;;;24.67;;
10381;SDS011;11635;53.636;10.120;2022-12-01T13:29:43;53.60;;;23.97;;
10381;SDS011;11635;53.636;10.120;2022-12-01T13:32:22;57.50;;;22.93;;
10381;SDS011;11635;53.636;10.120;2022-12-01T13:34:50;53.67;;;25.33;;
10381;SDS011;11635;53.636;10.120;2022-12-01T13:37:17;51.90;;;25.00;;
10381;SDS011;11635;53.636;10.120;2022-12-01T13:39:52;51.47;;;23.83;;
10381;SDS011;11635;53.636;10.120;2022-12-01T13:42:20;54.17;;;23.30;;
10381;SDS011;11635;53.636;10.120;2022-12-01T13:44:49;49.25;;;23.67;;
10381;SDS011;11635;53.636;10.120;2022-12-01T13:47:29;60.00;;;24.63;;
10381;SDS011;11635;53.636;10.120;2022-12-01T13:49:56;51.60;;;23.47;;
10381;SDS011;11635;53.636;10.120;2022-12-01T13:52:47;45.93;;;21.67;;
10381;SDS011;11635;53.636;10.120;2022-12-01T13:55:28;50.13;;;22.53;;
10381;SDS011;11635;53.636;10.120;2022-12-01T14:00:39;53.83;;;23.40;;
10381;SDS011;11635;53.636;10.120;2022-12-01T14:05:53;50.37;;;24.37;;
10381;SDS011;11635;53.636;10.120;2022-12-01T14:08:21;50.67;;;23.00;;
10381;SDS011;11635;53.636;10.120;2022-12-01T14:10:53;50.35;;;23.52;;
10381;SDS011;11635;53.636;10.120;2022-12-01T14:13:20;50.47;;;22.47;;
10381;SDS011;11635;53.636;10.120;2022-12-01T14:15:51;45.93;;;22.13;;
10381;SDS011;11635;53.636;10.120;2022-12-01T14:18:22;50.77;;;22.17;;
10381;SDS011;11635;53.636;10.120;2022-12-01T14:20:49;45.55;;;22.17;;
10381;SDS011;11635;53.636;10.120;2022-12-01T14:23:19;43.03;;;20.97;;